• Join FlightAware (Why Join?)
  • Login
  • US Flag 
04:52AM EDT


 

Airport Tracker/Info


-or-


 

Live Flight TrackerFlight Track Log ✈ SWA2869 ✈ 10-May-2013 ✈ KLAX - KLAS

Flight Track Log - Related Links

Times and Time Zones

All times are in EDT time to prevent confusion due to time zone crossing. See the SWA2869 flight status page for this flight to view local times or setup timezone preferences in your user account.

Time Position Orientation Groundspeed Altitude Reporting Facility
EDT Latitude Longitude Course Direction KTS MPH feet Rate Location/Type
09:24AM 33.9056 -118.4589 134° Southeast 208 239 3,100  Level Los Angeles Center
09:25AM 33.8486 -118.5167 220° Southwest 268 308 6,000 3,120 Climbing Los Angeles Center
09:26AM 33.7700 -118.5300 188° South 303 349 9,500 3,240 Climbing Los Angeles Center
09:27AM 33.6903 -118.4906 158° South 337 388 12,600 3,240 Climbing Los Angeles Center
09:28AM 33.6558 -118.3844 111° Southeast 348 400 16,100 2,940 Climbing Los Angeles Center
09:29AM 33.7052 -118.5440 134° Southeast  Level FlightAware Approximate
09:29AM 33.6439 -118.2647 97° East 375 432 18,600  Level Los Angeles Center
09:30AM 33.6894 -118.1361 67° East 378 435 22,700 2,280 Climbing Los Angeles Center
09:31AM 33.7731 -118.0636 36° Northeast 377 434 23,300 2,100 Climbing Los Angeles Center
09:32AM 33.8561 -117.9883 37° Northeast 378 435 27,000 2,760 Climbing Los Angeles Center
09:33AM 33.9372 -117.9136 37° Northeast 373 429 29,000 960 Climbing Los Angeles Center
09:34AM 34.0083 -117.8217 47° Northeast 377 434 29,000  Level Los Angeles Center
09:35AM 34.0789 -117.7303 47° Northeast 376 433 29,000 600 Level Los Angeles Center
09:36AM 34.1497 -117.6406 46° Northeast 372 428 30,300 960 Climbing Los Angeles Center
09:37AM 34.2194 -117.5492 47° Northeast 371 427 31,000 300 Climbing Los Angeles Center
09:38AM 34.3119 -117.4303 47° Northeast 397 457 31,000  Level Los Angeles Center
09:39AM 34.3883 -117.3319 47° Northeast 402 463 31,000  Level Los Angeles Center
09:40AM 34.4628 -117.2331 48° Northeast 403 464 31,000  Level Los Angeles Center
09:41AM 34.5383 -117.1344 47° Northeast 403 464 31,000  Level Los Angeles Center
09:42AM 34.6136 -117.0364 47° Northeast 402 463 31,000  Level Los Angeles Center
09:43AM 34.6881 -116.9381 47° Northeast 400 460 31,000  Level Los Angeles Center
09:44AM 34.7636 -116.8389 47° Northeast 402 463 31,000  Level Los Angeles Center
09:45AM 34.8525 -116.7194 48° Northeast 400 460 31,000 -660 Level Los Angeles Center
09:46AM 34.9272 -116.6192 48° Northeast 402 463 29,700 -1,860 Descending Los Angeles Center
09:47AM 35.0019 -116.5239 46° Northeast 395 455 27,200 -2,460 Descending Los Angeles Center
09:48AM 35.0756 -116.4336 45° Northeast 383 441 24,700 -1,620 Descending Los Angeles Center
09:49AM 35.1503 -116.3428 45° Northeast 381 438 24,000 -360 Descending Los Angeles Center
09:50AM 35.2219 -116.2539 45° Northeast 374 430 24,000  Level Los Angeles Center
09:51AM 35.2919 -116.1619 47° Northeast 370 426 24,000 -900 Level Los Angeles Center
09:52AM 35.3781 -116.0542 46° Northeast 371 427 22,200 -2,040 Descending Los Angeles Center
09:53AM 35.4453 -115.9669 47° Northeast 358 412 19,900 -2,340 Descending Los Angeles Center
09:54AM 35.4811 -115.9244 44° Northeast 353 406 18,700 -2,220 Descending Los Angeles Center
09:54AM 35.5172 -115.8811 44° Northeast 339 390 17,700 -2,100 Descending Los Angeles Center
09:56AM 35.5792 -115.7997 47° Northeast 330 380 15,500 -2,100 Descending Los Angeles Center
09:57AM 35.6408 -115.7228 45° Northeast 321 369 13,400 -1,260 Descending Los Angeles Center
09:58AM 35.6956 -115.6525 46° Northeast 294 338 13,000 -180 Descending Los Angeles Center
09:59AM 35.7522 -115.5814 46° Northeast 267 307 13,000  Level Los Angeles Center
10:00AM 35.8461 -115.5689 North 280 322 13,000  Level Los Angeles Center
10:01AM 35.9000 -115.5253 33° Northeast 274 315 13,000 -420 Level Los Angeles Center
10:02AM 35.9731 -115.4411 43° Northeast 265 305 12,100 -960 Descending Los Angeles Center
10:03AM 36.0131 -115.3961 42° Northeast 258 297 11,100 -840 Descending Los Angeles Center
10:04AM 36.0261 -115.3100 79° East 262 302 10,600 -900 Descending Los Angeles Center
10:05AM 36.0208 -115.2422 95° East 248 285 9,500 -1,380 Descending Los Angeles Center
10:05AM 36.0206 -115.2247 91° East 253 291 9,200 -1,440 Descending Los Angeles Center
10:06AM 36.0144 -115.1433 95° East 257 296 7,900 -1,200 Descending Los Angeles Center
10:07AM 36.0083 -115.0656 96° East 195 224 6,900 -1,140 Descending Los Angeles Center
10:08AM 36.0192 -115.0061 77° East 178 205 5,500 -1,560 Descending Los Angeles Center
10:09AM 36.0514 -114.9956 15° North 149 171 4,100 -1,500 Descending Los Angeles Center
10:09AM 36.0631 -115.0019 336° Northwest 165 190 3,800 -600 Descending Los Angeles Center
10:10AM 36.0728 -115.0442 286° West 143 165 3,400 -660 Descending Los Angeles Center
10:11AM 36.0750 -115.0964 273° West 142 163 2,500 -600 Descending Los Angeles Center
10:12AM 36.0742 -115.1400 269° West 137 158 2,000 -420 Descending Los Angeles Center
10:14AM 36.0667 -115.1500 270° West  Level FlightAware Approximate